Latest Weather Observations for Perisher Valley

IDN60801

Issued at 9:35 pm EST Sunday 21 September 2014 (issued every 30 minutes, with the page automatically refreshed every 10 minutes)

About weather observations | Map of weather stations | Latest weather observations for NSW | Other Formats
Station Details ID: 071075 Name: PERISHER VALLEY AWS Lat: -36.41 Lon: 148.41 Height: 1738.0 m
Data from the previous 72 hours. | See also: Recent months at Perisher Valley
Date/Time
EST
Temp
°C
App
Temp
°C
Dew
Point
Rel
Hum
%
Delta-T
°C
Wind Press
QNH
hPa
Press
MSL
hPa
Rain
since 9 am
mm
Dir
 
Spd
km/h
Gust
km/h
Spd
kts
Gust
kts
21/09:30pm -0.7 -3.0 -2.4 88 0.6 S 0 0 0 0 - - 0.0
21/09:00pm -0.4 -3.1 -2.1 88 0.6 SW 2 4 1 2 - - 0.0
21/08:30pm 0.1 -2.2 -2.3 84 0.9 CALM 0 2 0 1 - - 0.0
21/08:00pm 0.4 -2.3 -2.1 83 1.0 WSW 2 4 1 2 - - 0.0
21/07:30pm 1.1 -1.5 -1.6 82 1.1 SW 2 4 1 2 - - 0.0
21/07:00pm 1.2 -1.4 -1.9 80 1.3 SW 2 6 1 3 - - 0.0
21/06:30pm 2.5 0.0 -1.3 76 1.5 SSW 2 4 1 2 - - 0.0
21/06:00pm 3.8 1.3 -1.0 71 2.0 W 2 4 1 2 - - 0.0
21/05:30pm 5.4 2.6 -0.4 66 2.5 E 4 11 2 6 - - 0.0
21/05:00pm 6.7 3.6 0.4 64 2.8 E 6 11 3 6 - - 0.0
21/04:30pm 8.2 5.9 0.4 58 3.5 SW 2 9 1 5 - - 0.0
21/04:00pm 7.8 3.7 0.1 58 3.4 WSW 11 19 6 10 - - 0.0
21/03:30pm 8.1 4.4 -0.1 56 3.6 WSW 9 17 5 9 - - 0.0
21/03:00pm 8.1 4.3 -0.6 54 3.8 WSW 9 22 5 12 - - 0.0
21/02:30pm 8.2 4.3 -1.6 50 4.2 WSW 9 20 5 11 - - 0.0
21/02:00pm 8.4 4.4 -2.2 47 4.5 WSW 9 17 5 9 - - 0.0
21/01:30pm 7.6 3.2 -2.7 48 4.2 W 11 20 6 11 - - 0.0
21/01:00pm 7.9 3.6 -5.2 39 5.1 WSW 9 20 5 11 - - 0.0
21/12:30pm 7.7 3.4 -4.7 41 4.9 W 9 17 5 9 - - 0.0
21/12:00pm 7.8 2.9 -7.4 33 5.6 W 11 20 6 11 - - 0.0
21/11:30am 7.8 3.7 -6.7 35 5.4 W 7 20 4 11 - - 0.0
21/11:00am 6.8 2.5 -5.2 42 4.6 W 9 17 5 9 - - 0.0
21/10:30am 6.3 1.9 -6.0 41 4.6 W 9 15 5 8 - - 0.0
21/10:00am 6.6 2.9 -4.2 46 4.2 WSW 6 13 3 7 - - 0.0
21/09:30am 6.1 2.6 -2.5 54 3.5 W 6 13 3 7 - - 0.0
21/09:00am 5.5 1.6 -6.4 42 4.4 SW 6 11 3 6 - - 0.0
21/08:30am 5.0 0.9 -6.2 44 4.1 WSW 7 15 4 8 - - 0.0
21/08:00am 4.2 0.5 -8.8 38 4.7 WSW 4 11 2 6 - - 0.0
21/07:30am 3.3 -0.2 -6.6 48 3.7 SW 4 15 2 8 - - 0.0
21/07:00am -0.1 -3.5 -9.0 51 2.9 E 2 6 1 3 - - 0.0
21/06:30am -1.0 -4.0 -9.1 54 2.5 ENE 0 2 0 1 - - 0.0
21/06:00am -1.7 -4.7 -9.5 55 2.4 ENE 0 2 0 1 - - 0.0
21/05:30am -1.7 -4.8 -10.2 52 2.5 CALM 0 6 0 3 - - 0.0
21/05:00am 0.3 -3.9 -9.9 46 3.2 WSW 6 17 3 9 - - 0.0
21/04:30am 1.6 -3.3 -6.9 53 3.0 WSW 11 22 6 12 - - 0.0
21/04:00am 1.3 -3.3 -7.7 51 3.1 WSW 9 17 5 9 - - 0.0
21/03:30am 2.0 -2.7 -8.9 44 3.7 WSW 9 15 5 8 - - 0.0
21/03:00am 2.1 -2.4 -7.2 50 3.3 WSW 9 19 5 10 - - 0.0
21/02:30am 1.9 -2.2 -6.4 54 3.0 SW 7 20 4 11 - - 0.0
21/02:00am 1.0 -2.3 -4.6 66 2.1 SW 4 17 2 9 - - 0.0
21/01:30am -2.6 -5.1 -3.6 93 0.2 CALM 0 4 0 2 - - 0.0
21/01:00am -1.0 -3.2 -1.8 94 0.3 CALM 0 2 0 1 - - 0.0
21/12:30am -0.3 -2.4 -1.1 94 0.3 CALM 0 2 0 1 - - 0.0
21/12:00am 0.3 -2.2 -0.7 93 0.4 NNW 2 6 1 3 - - 0.0
 
Date/Time
EST
Temp
°C
App
Temp
°C
Dew
Point
Rel
Hum
%
Delta-T
°C
Wind Press
QNH
hPa
Press
MSL
hPa
Rain
since 9 am
mm
Dir
 
Spd
km/h
Gust
km/h
Spd
kts
Gust
kts
20/11:30pm 0.6 -1.5 -0.8 90 0.6 CALM 0 0 0 0 - - 0.0
20/11:00pm 0.8 -1.3 -0.8 89 0.6 CALM 0 0 0 0 - - 0.0
20/10:30pm 0.8 -1.3 -1.0 88 0.7 CALM 0 2 0 1 - - 0.0
20/10:00pm 1.0 -1.1 -0.6 89 0.6 CALM 0 2 0 1 - - 0.0
20/09:30pm 1.0 -1.1 -0.6 89 0.6 CALM 0 2 0 1 - - 0.0
20/09:00pm 0.9 -1.5 -0.5 90 0.6 NNE 2 2 1 1 - - 0.0
20/08:30pm 1.0 -1.1 -0.6 89 0.6 CALM 0 2 0 1 - - 0.0
20/08:00pm 0.9 -1.2 -0.9 88 0.7 CALM 0 0 0 0 - - 0.0
20/07:30pm 1.2 -0.8 -0.4 89 0.7 CALM 0 2 0 1 - - 0.0
20/07:00pm 1.1 -1.0 -0.7 88 0.7 CALM 0 0 0 0 - - 0.0
20/06:30pm 1.2 -1.3 -0.7 87 0.8 SW 2 6 1 3 - - 0.0
20/06:00pm 2.2 -0.2 -0.1 85 1.0 W 2 6 1 3 - - 0.0
20/05:30pm 3.1 0.7 0.0 80 1.3 N 2 6 1 3 - - 0.0
20/05:00pm 5.1 2.5 0.9 74 1.8 S 4 13 2 7 - - 0.0
20/04:30pm 5.3 2.3 0.5 71 2.1 SSE 6 13 3 7 - - 0.0
20/04:00pm 6.4 3.8 0.7 67 2.5 SSE 4 11 2 6 - - 0.0
20/03:30pm 7.1 4.5 1.0 65 2.7 ESE 4 11 2 6 - - 0.0
20/03:00pm 8.4 5.4 -1.7 49 4.3 SW 4 9 2 5 - - 0.0
20/02:30pm 8.1 4.5 -4.0 42 4.9 WSW 6 11 3 6 - - 0.0
20/02:00pm 7.5 4.0 -3.1 47 4.3 E 6 15 3 8 - - 0.0
20/01:30pm 7.2 3.1 -0.3 59 3.3 E 11 19 6 10 - - 0.0
20/01:00pm 7.2 3.0 -1.0 56 3.5 E 11 19 6 10 - - 0.0
20/12:30pm 7.9 4.8 -3.0 46 4.5 SW 4 9 2 5 - - 0.0
20/12:00pm 7.3 4.0 -4.4 43 4.6 N 4 11 2 6 - - 0.0
20/11:30am 7.6 3.8 -10.2 27 6.1 WSW 4 9 2 5 - - 0.0
20/11:00am 7.0 2.5 -15.0 19 6.7 SW 6 17 3 9 - - 0.0
20/10:30am 6.6 2.6 -13.0 23 6.2 WSW 4 11 2 6 - - 0.0
20/10:00am 5.7 1.8 -11.8 27 5.6 WSW 4 9 2 5 - - 0.0
20/09:30am 5.5 1.2 -17.6 17 6.8 WSW 4 11 2 6 - - 0.0
20/09:00am 5.7 1.4 -19.7 14 7.1 SW 4 11 2 6 - - 0.0
20/08:30am 5.1 0.8 -17.9 17 6.6 SW 4 13 2 7 - - 0.0
20/08:00am 3.3 -0.5 -16.9 21 5.7 SW 2 7 1 4 - - 0.0
20/07:30am 1.7 -2.1 -16.2 25 5.0 WSW 2 9 1 5 - - 0.0
20/07:00am -0.6 -4.3 -14.8 33 3.9 WSW 2 6 1 3 - - 0.0
20/06:30am -1.1 -5.9 -16.4 30 3.9 WSW 7 13 4 7 - - 0.0
20/06:00am -1.9 -6.6 -15.3 35 3.5 WSW 7 13 4 7 - - 0.0
20/05:30am -1.8 -6.3 -14.5 37 3.4 WSW 6 13 3 7 - - 0.0
20/05:00am -0.6 -5.7 -16.0 30 4.1 WSW 9 15 5 8 - - 0.0
20/04:30am -1.0 -5.7 -15.6 32 3.9 SW 7 13 4 7 - - 0.0
20/04:00am -1.3 -5.8 -12.2 43 3.1 SW 7 11 4 6 - - 0.0
20/03:30am -1.1 -6.0 -11.2 46 3.0 SW 9 15 5 8 - - 0.0
20/03:00am -0.8 -5.2 -10.7 47 3.0 SW 7 15 4 8 - - 0.0
20/02:30am -1.0 -5.2 -10.3 49 2.8 WSW 6 11 3 6 - - 0.0
20/02:00am -0.3 -4.6 -8.9 52 2.8 SW 7 13 4 7 - - 0.0
20/01:30am -0.3 -4.5 -7.8 57 2.5 SW 7 13 4 7 - - 0.0
20/01:00am -0.3 -4.5 -7.8 57 2.5 SW 7 13 4 7 - - 0.0
20/12:30am -0.4 -4.3 -6.2 65 2.0 SW 6 15 3 8 - - 0.0
20/12:00am -0.3 -4.2 -4.9 71 1.6 SW 7 13 4 7 - - 0.0
 
Date/Time
EST
Temp
°C
App
Temp
°C
Dew
Point
Rel
Hum
%
Delta-T
°C
Wind Press
QNH
hPa
Press
MSL
hPa
Rain
since 9 am
mm
Dir
 
Spd
km/h
Gust
km/h
Spd
kts
Gust
kts
19/11:30pm 0.2 -3.5 -4.6 70 1.8 SW 6 17 3 9 - - 0.0
19/11:00pm 0.6 -3.8 -2.6 79 1.3 WSW 11 22 6 12 - - 0.0
19/10:30pm -0.1 -4.2 -2.8 82 1.0 SW 9 15 5 8 - - 0.0
19/10:00pm 0.0 -3.6 -2.4 84 0.9 SW 7 17 4 9 - - 0.0
19/09:30pm 0.0 -3.4 -2.4 84 0.9 WSW 6 13 3 7 - - 0.0
19/09:00pm -0.2 -3.3 -2.7 83 0.9 WSW 4 9 2 5 - - 0.0
19/08:30pm 0.6 -2.8 -2.3 81 1.2 WSW 6 13 3 7 - - 0.0
19/08:00pm 1.1 -3.2 -2.0 80 1.3 WSW 11 22 6 12 - - 0.0
19/07:30pm -0.2 -3.6 -2.3 86 0.8 WSW 6 11 3 6 - - 0.0
19/07:00pm 0.2 -2.9 -2.8 80 1.2 SW 4 11 2 6 - - 0.0
19/06:30pm 0.4 -2.4 -3.3 76 1.4 SW 2 9 1 5 - - 0.0
19/06:00pm 1.5 -1.7 -3.9 67 2.1 WSW 4 11 2 6 - - 0.0
19/05:30pm 2.3 -1.6 -4.9 59 2.8 WSW 7 17 4 9 - - 0.0
19/05:00pm 3.9 0.6 -4.1 56 3.1 WSW 4 11 2 6 - - 0.0
19/04:30pm 4.6 0.9 -4.9 50 3.6 WSW 6 15 3 8 - - 0.0
19/04:00pm 4.4 -0.3 -4.8 51 3.5 WSW 11 22 6 12 - - 0.0
19/03:30pm 5.0 0.5 -6.5 43 4.2 WSW 9 20 5 11 - - 0.0
19/03:00pm 5.0 1.2 -3.5 54 3.3 WSW 7 20 4 11 - - 0.0
19/02:30pm 4.3 -1.0 -3.4 57 3.0 W 15 24 8 13 - - 0.0
19/02:00pm 4.6 0.0 -4.1 53 3.3 WSW 11 22 6 12 - - 0.0
19/01:30pm 4.7 0.5 -4.3 52 3.5 WSW 9 19 5 10 - - 0.0
19/01:00pm 4.8 0.9 -4.5 51 3.6 WSW 7 17 4 9 - - 0.0
19/12:30pm 3.9 -0.4 -5.3 51 3.4 WSW 9 20 5 11 - - 0.0
19/12:00pm 3.3 -2.3 -6.4 49 3.7 WSW 15 28 8 15 - - 0.0
19/11:30am 3.1 -2.7 -8.8 41 4.2 WSW 15 28 8 15 - - 0.0
19/11:00am 3.8 -1.3 -9.9 36 4.7 WSW 11 22 6 12 - - 0.0
19/10:30am 3.8 -1.0 -11.0 33 5.0 WSW 9 22 5 12 - - 0.0
19/10:00am 2.9 -3.9 -12.1 32 4.8 SSW 19 28 10 15 - - 0.0
19/09:30am 3.6 -1.5 -15.6 23 5.7 SW 9 20 5 11 - - 0.0
19/09:00am 2.6 -2.1 -14.5 27 5.1 WSW 7 22 4 12 - - 0.0
19/08:30am 1.0 -5.2 -14.6 30 4.5 W 15 28 8 15 - - 0.0
19/08:00am 1.0 -3.8 -16.3 26 4.7 WSW 7 19 4 10 - - 0.0
19/07:30am 0.2 -5.4 -19.0 22 4.8 SW 11 24 6 13 - - 0.0
19/07:00am -0.8 -5.5 -19.8 22 4.5 WSW 6 17 3 9 - - 0.0
19/06:30am -2.6 -7.5 -19.9 25 3.9 SW 7 13 4 7 - - 0.0
19/06:00am -2.9 -7.8 -20.1 25 3.8 SW 7 15 4 8 - - 0.0
19/05:30am -2.2 -7.1 -20.0 24 4.1 WSW 7 20 4 11 - - 0.0
19/05:00am -4.6 -9.4 -17.4 36 2.9 SW 7 17 4 9 - - 0.0
19/04:30am -2.3 -7.2 -18.7 27 3.9 SW 7 19 4 10 - - 0.0
19/04:00am -3.5 -8.3 -16.4 36 3.1 SW 7 19 4 10 - - 0.0
19/03:30am -3.9 -8.9 -14.3 44 2.6 SW 9 20 5 11 - - 0.0
19/03:00am -3.0 -7.6 -13.8 43 2.8 WSW 7 26 4 14 - - 0.0
19/02:30am -2.0 -7.4 -13.2 42 3.1 SW 11 24 6 13 - - 0.0
19/02:00am -1.6 -7.0 -13.1 41 3.2 SW 11 22 6 12 - - 0.0
19/01:30am -2.6 -7.6 -12.9 45 2.8 SW 9 20 5 11 - - 0.0
19/01:00am -2.4 -7.3 -12.7 45 2.8 SW 9 20 5 11 - - 0.0
19/12:30am -2.3 -7.3 -13.1 43 2.9 SW 9 22 5 12 - - 0.0
19/12:00am -2.2 -6.6 -12.5 45 2.8 SW 6 17 3 9 - - 0.0
 
Date/Time
EST
Temp
°C
App
Temp
°C
Dew
Point
Rel
Hum
%
Delta-T
°C
Wind Press
QNH
hPa
Press
MSL
hPa
Rain
since 9 am
mm
Dir
 
Spd
km/h
Gust
km/h
Spd
kts
Gust
kts
18/11:30pm -1.3 -8.3 -11.7 45 3.0 W 20 33 11 18 - - 0.0
18/11:00pm -1.9 -7.6 -8.0 63 1.9 W 15 32 8 17 - - 0.0
18/10:30pm -2.6 -7.4 -5.7 79 0.9 WSW 11 28 6 15 - - 0.0
18/10:00pm -2.2 -6.5 -4.8 82 0.8 WSW 9 20 5 11 - - 0.0

Other Formats:

Comma delimited format used in spreadsheet applications
http://www.bom.gov.au/fwo/IDN60801/IDN60801.94915.axf

JavaScript Object Notation format (JSON) in row-major order
http://www.bom.gov.au/fwo/IDN60801/IDN60801.94915.json